aviador You're here:

KVDF Decoded Metar

TAMPA/VANDENBURG in FL, USA
Report Time2018-04-23 22:35:00
UTC Time2018-04-23 22:55:15
Flight Rules vfr VFR
Wind230° at 06 kt
W.Decomp.*RWY 23: 6.0 kt HW 0.4 kt RCW
RWY 18: 3.5 kt HW 4.9 kt RCW
W.Rank230° ranks 13
Current wind is below 230° avg. (6.0)
Visibility9999 m
Phenomena:N/A
Clouds:Scattered 020 Hf
Broken 034 Hf
Overcast 080 Hf
Expected CloudBase > 2,000 ft AGL from Temp-Dew spread
Ceiling3,400 ft
Temp27°C (ISA +12)
Dew Point22°C (74% RH)
Heat Index29.2°C
QNH1014 hPa
Density Alt1,726 ft
Elevation23 ft
Report Wrong Elevation
Raw Report
METAR KVDF 232235Z AUTO 23006KT 10SM SCT020 BKN034 OVC080 27/22 A2994
RMK AO2 P0001=

Extra information for KVDF:More info

Metar Taf Metar & Taf Last 4 Metars F.Rules Stats Wind Profile Meteogram Temp Stats Airport Information Weather charts Add Link Nearby VenuesMetar ALERT Operation Metar Decoded Social comments

AIRNAV info for KVDF